Terminal Aerodrome Forecast
Issued by NWS

Home | Current Version | Previous Version | Text Only | Print | Product List | Glossary Off
Versions: 1 2 3 4 5 6 7 8 9 10 11 12 13

063
FTUS43 KBIS 181730
TAFJMS
TAF
KJMS 181730Z 1818/1918 01012KT P6SM BKN180
     FM190100 36006KT P6SM BKN200
     FM190600 30004KT P6SM SCT250=

USA.gov is the U.S. government's official web portal to all federal, state and local government web resources and services.